Monroe County Airport
KBMG : rendu visible

Aérodrome :











RETROUVEZ-NOUS SUR...

 
LOGIN :

S'inscrire | Disclaimer

   EN    FR    IT 

 









Légende :    VFR   VFR Marginal   IFR   IFR Intensif   IFR Très Intensif
Visi : 
Plafond : 
>= 8 km
>= 3000ft
5 à 8 km
1000 à 3000 ft
1500m à 5 km
500 à 1000 ft
800 à 1500m
200 à 500 ft
< 800m
< 200 ft
Symboles :   Orages  Brouillard  Fortes neiges  Fortes précipitations  Vent > 20 kt






- Altitude de l'aérodrome : 846 ft
- Code IATA : BMG


KBMG - Monroe County

DERNIER METAR :
  • 192353Z 36005KT 10SM CLR 01/M07 A3048 RMK AO2 SLP330 T00111067 10061 20011 55003

METARs EXPIRÉS :
  • 192253Z 01005KT 10SM CLR 04/M08 A3048 RMK AO2 SLP329 T00391083
  • 192153Z 35008KT 10SM CLR 05/M06 A3048 RMK AO2 SLP330 T00501056

TAF KBMG
Valide du 20 à 00h jusqu'au 21 à 00h UTC


192321Z 2000/2024 01005KT P6SM BKN200
FM200800 02007KT P6SM BKN060
FM201100 02007KT P6SM OVC060
FM201700 02010KT P6SM BKN045
FM201900 01011KT P6SM SCT035 AMD LTD TO CLD VIS AND WIND 2002/2014



MET'MAP, la Météo Aéronautique d'un coup d'oeil ! - Copyright ORBIFLY Décembre 2007 - Disclaimer

ORBIFLY MET'MAP TEAM :

Programmation & Développement : Alexandra Zaïnal
Sur une idée originale de : Baudouin d'Aumeries
Assistance à la programmation : Marc-Olivier Méhu
Soutien technique & logistique : Manuel Goepfert

Contact : metmap@orbifly.com




SOURCES & CREDITS :

   NOAA       Earth
Advisory